Weather History for KLXN - February, 2014

Change the Weather History Date:

Saturday, February 15, 2014

  Actual Average Record
Temperature  
Mean Temperature 40 °F -  
Max Temperature 54 °F 41 °F 66 °F (2011)
Min Temperature 26 °F 19 °F -9 °F (2007)
Degree Days  
Heating Degree Days 25    
Moisture  
Dew Point 29 °F    
Average Humidity 70    
Maximum Humidity 89    
Minimum Humidity 31    
Precipitation  
Precipitation 0.00 in - - ()
Sea Level Pressure  
Sea Level Pressure 29.90 in    
Wind  
Wind Speed 12 mph (WNW)    
Max Wind Speed 30 mph    
Max Gust Speed 37 mph    
Visibility 10 miles    
Events Rain    
Averages and records for this station are not official NWS values.
T = Trace of Precipitation, MM = Missing Value Source: NWS Daily Summary

Daily Weather History Graph

Daily Weather History Graph

Search for Another Location

Airport or City:

Trip Planner

Search our weather history database for the weather conditions in past years. The results will help you decide how hot, cold, wet, or windy it might be!

Date:

Astronomy

Feb. 15, 2014 Rise Set
Actual Time 7:33 AM CST 6:13 PM CST
Civil Twilight 7:04 AM CST 6:42 PM CST
Nautical Twilight 6:32 AM CST 7:14 PM CST
Astronomical Twilight 6:01 AM CST 7:45 PM CST
Moon 7:16 PM CST (2/15) 7:32 AM CST (2/15)
Length of Visible Light 11h 37m
Length of Day
10h 40m
Waxing Gibbous, 99% of the Moon is Illuminated
Feb 15
Waxing Gibbous
Feb 22
Last Quarter
Mar 1
New
Mar 8
First Quarter
Mar 16
Full

Hourly Weather History & Observations

Time (CST) Temp. Windchill Dew Point Humidity Pressure Visibility Wind Dir Wind Speed Gust Speed Precip Events Conditions
12:15 AM 32.4 °F 21.7 °F 27.1 °F 81% 29.91 in 10.0 mi South 16.1 mph 20.7 mph N/A   Overcast
12:35 AM 32.4 °F 22.1 °F 27.3 °F 82% 29.89 in 10.0 mi South 15.0 mph - N/A   Overcast
12:55 AM 32.5 °F 21.9 °F 27.5 °F 82% 29.88 in 10.0 mi South 16.1 mph 19.6 mph N/A   Overcast
1:15 AM 32.4 °F 21.7 °F 27.5 °F 82% 29.87 in 10.0 mi South 16.1 mph - N/A   Overcast
1:35 AM 32.4 °F 22.1 °F 27.5 °F 82% 29.84 in 10.0 mi SSE 15.0 mph 21.9 mph N/A   Overcast
1:55 AM 32.4 °F 23.5 °F 27.5 °F 82% 29.84 in 10.0 mi SSE 11.5 mph 19.6 mph N/A   Overcast
2:15 AM 32.4 °F 23.5 °F 28.0 °F 84% 29.83 in 10.0 mi SSE 11.5 mph - N/A   Overcast
2:35 AM 32.4 °F 23.0 °F 28.0 °F 84% 29.80 in 10.0 mi SSE 12.7 mph 18.4 mph N/A   Overcast
2:55 AM 32.4 °F 22.1 °F 28.2 °F 85% 29.78 in 10.0 mi SSE 15.0 mph - N/A   Overcast
3:15 AM 32.9 °F 22.8 °F 28.4 °F 84% 29.79 in 10.0 mi South 15.0 mph - N/A   Overcast
3:35 AM 33.3 °F 23.7 °F 28.8 °F 84% 29.77 in 10.0 mi South 13.8 mph - N/A   Overcast
3:55 AM 32.9 °F 25.9 °F 28.4 °F 84% 29.77 in 10.0 mi SE 8.1 mph - N/A   Mostly Cloudy
4:15 AM 32.4 °F 24.0 °F 28.2 °F 85% 29.76 in 10.0 mi SSE 10.4 mph - N/A   Clear
4:35 AM 32.9 °F 25.9 °F 28.9 °F 85% 29.75 in 10.0 mi SSE 8.1 mph 20.7 mph N/A   Mostly Cloudy
4:55 AM 33.1 °F 30.0 °F 28.9 °F 85% 29.76 in 10.0 mi SE 3.5 mph - N/A   Overcast
5:15 AM 32.9 °F 28.5 °F 28.9 °F 85% 29.76 in 10.0 mi NNW 4.6 mph - N/A   Overcast
5:35 AM 33.1 °F 28.7 °F 28.4 °F 83% 29.75 in 10.0 mi South 4.6 mph - N/A   Mostly Cloudy
5:55 AM 33.8 °F 29.6 °F 29.1 °F 83% 29.76 in 10.0 mi SE 4.6 mph - N/A   Overcast
6:15 AM 34.0 °F - 29.1 °F 82% 29.77 in 10.0 mi Calm Calm - N/A   Overcast
6:35 AM 33.4 °F 28.1 °F 29.1 °F 84% 29.76 in 10.0 mi South 5.8 mph - N/A   Overcast
6:55 AM 32.9 °F 29.8 °F 29.3 °F 87% 29.78 in 10.0 mi South 3.5 mph - N/A   Overcast
7:15 AM 32.0 °F - 28.9 °F 88% 29.78 in 10.0 mi Calm Calm - N/A   Mostly Cloudy
7:35 AM 32.2 °F - 29.3 °F 89% 29.78 in 10.0 mi Calm Calm - N/A   Overcast
7:55 AM 32.9 °F - 29.8 °F 88% 29.79 in 10.0 mi Calm Calm - N/A   Overcast
8:15 AM 33.3 °F 30.2 °F 30.0 °F 88% 29.80 in 10.0 mi West 3.5 mph - N/A   Overcast
8:35 AM 33.8 °F 28.6 °F 30.2 °F 87% 29.81 in 10.0 mi NNW 5.8 mph - N/A   Overcast
8:55 AM 34.3 °F 30.2 °F 30.7 °F 87% 29.82 in 10.0 mi NNW 4.6 mph - N/A   Light Drizzle
9:15 AM 35.1 °F 29.3 °F 30.7 °F 84% 29.83 in 10.0 mi NW 6.9 mph - N/A   Overcast
9:35 AM 36.5 °F 30.3 °F 31.8 °F 83% 29.84 in 10.0 mi NW 8.1 mph - N/A Rain Light Rain
9:55 AM 38.7 °F 32.4 °F 33.6 °F 82% 29.84 in 10.0 mi NW 9.2 mph - N/A Rain Light Rain
10:15 AM 41.4 °F 35.7 °F 35.8 °F 81% 29.83 in 10.0 mi NNW 9.2 mph - N/A   Overcast
10:35 AM 46.8 °F - 36.9 °F 68% 29.85 in 10.0 mi NW 17.3 mph - N/A   Scattered Clouds
10:55 AM 48.2 °F - 36.0 °F 63% 29.85 in 10.0 mi WNW 13.8 mph - N/A   Clear
11:15 AM 48.4 °F - 36.0 °F 62% 29.86 in 10.0 mi NW 17.3 mph - N/A   Clear
11:35 AM 50.0 °F - 37.2 °F 62% 29.89 in 10.0 mi WNW 17.3 mph - N/A   Clear
11:55 AM 50.9 °F - 34.3 °F 53% 29.89 in 10.0 mi NW 16.1 mph 26.5 mph N/A   Mostly Cloudy
12:15 PM 52.2 °F - 32.9 °F 48% 29.89 in 10.0 mi NW 20.7 mph 24.2 mph N/A   Mostly Cloudy
12:30 PM 51.3 °F - 32.2 °F 48% 29.90 in 10.0 mi NW 18.4 mph 25.3 mph N/A   Scattered Clouds
12:55 PM 50.9 °F - 32.0 °F 48% 29.90 in 10.0 mi NW 19.6 mph 26.5 mph N/A   Overcast
1:15 PM 50.4 °F - 32.0 °F 49% 29.91 in 10.0 mi NW 20.7 mph 26.5 mph N/A   Overcast
1:35 PM 50.9 °F - 32.7 °F 50% 29.90 in 10.0 mi NW 20.7 mph 26.5 mph N/A   Overcast
1:55 PM 50.4 °F - 34.0 °F 53% 29.91 in 10.0 mi NW 20.7 mph 25.3 mph N/A   Scattered Clouds
2:15 PM 49.8 °F - 34.7 °F 56% 29.91 in 10.0 mi NW 18.4 mph 24.2 mph N/A   Clear
2:35 PM 51.1 °F - 34.9 °F 54% 29.91 in 10.0 mi WNW 19.6 mph 25.3 mph N/A   Clear
2:55 PM 52.7 °F - 33.3 °F 48% 29.91 in 10.0 mi WNW 21.9 mph 29.9 mph N/A   Clear
3:15 PM 53.4 °F - 27.5 °F 37% 29.92 in 10.0 mi NW 27.6 mph 33.4 mph N/A   Clear
3:35 PM 54.5 °F - 26.4 °F 34% 29.92 in 10.0 mi NNW 29.9 mph 33.4 mph N/A   Clear
3:55 PM 54.0 °F - 25.5 °F 33% 29.94 in 10.0 mi NW 23.0 mph 36.8 mph N/A   Clear
4:15 PM 54.1 °F - 23.9 °F 31% 29.94 in 10.0 mi NNW 26.5 mph 32.2 mph N/A   Clear
4:35 PM 53.8 °F - 24.8 °F 33% 29.94 in 10.0 mi NW 19.6 mph 29.9 mph N/A   Clear
4:55 PM 53.2 °F - 25.2 °F 34% 29.95 in 10.0 mi NNW 18.4 mph 26.5 mph N/A   Clear
5:15 PM 52.2 °F - 26.2 °F 37% 29.95 in 10.0 mi NNW 21.9 mph 26.5 mph N/A   Clear
5:35 PM 50.9 °F - 25.2 °F 37% 29.97 in 10.0 mi NW 17.3 mph - N/A   Clear
5:55 PM 48.4 °F - 26.2 °F 42% 29.98 in 10.0 mi NW 12.7 mph - N/A   Clear
6:15 PM 44.2 °F 38.8 °F 26.6 °F 50% 29.99 in 10.0 mi NW 10.4 mph - N/A   Clear
6:35 PM 41.0 °F 35.8 °F 26.4 °F 56% 30.00 in 10.0 mi NW 8.1 mph - N/A   Clear
6:55 PM 37.0 °F 31.0 °F 26.1 °F 65% 30.01 in 10.0 mi WNW 8.1 mph - N/A   Clear
7:15 PM 35.8 °F 28.3 °F 26.1 °F 68% 30.02 in 10.0 mi WNW 10.4 mph - N/A   Clear
7:35 PM 34.7 °F 27.5 °F 25.7 °F 70% 30.02 in 10.0 mi NW 9.2 mph - N/A   Clear
7:55 PM 33.1 °F 26.9 °F 25.5 °F 74% 30.03 in 10.0 mi West 6.9 mph - N/A   Clear
8:15 PM 32.0 °F 26.4 °F 24.8 °F 75% 30.04 in 10.0 mi WNW 5.8 mph - N/A   Clear
8:35 PM 31.3 °F 23.9 °F 24.8 °F 77% 30.04 in 10.0 mi NW 8.1 mph - N/A   Clear
8:55 PM 29.3 °F 22.3 °F 24.1 °F 81% 30.05 in 10.0 mi WNW 6.9 mph - N/A   Clear
9:15 PM 29.5 °F 24.5 °F 24.3 °F 81% 30.06 in 10.0 mi WNW 4.6 mph - N/A   Clear
9:35 PM 30.6 °F 22.4 °F 25.3 °F 81% 30.06 in 10.0 mi WNW 9.2 mph - N/A   Clear
9:55 PM 30.2 °F 22.6 °F 25.3 °F 82% 30.07 in 10.0 mi West 8.1 mph - N/A   Clear
10:15 PM 28.6 °F 24.8 °F 24.4 °F 84% 30.08 in 10.0 mi WNW 3.5 mph - N/A   Clear
10:35 PM 27.1 °F 20.7 °F 23.5 °F 86% 30.08 in 10.0 mi NNW 5.8 mph - N/A   Clear
10:55 PM 27.5 °F 22.2 °F 23.9 °F 86% 30.08 in 10.0 mi WNW 4.6 mph - N/A   Clear
11:15 PM 26.6 °F 20.0 °F 23.2 °F 87% 30.07 in 10.0 mi NNW 5.8 mph - N/A   Clear
11:35 PM 26.1 °F 18.4 °F 23.0 °F 88% 30.08 in 10.0 mi NNW 6.9 mph - N/A   Clear
11:55 PM 26.4 °F 19.8 °F 23.2 °F 88% 30.07 in 10.0 mi North 5.8 mph - N/A   Scattered Clouds